sensor_id;sensor_type;location;lat;lon;timestamp;temperature;humidity
23744;DHT22;12052;53.478;10.182;2023-03-14T00:00:34;9.70;99.90
23744;DHT22;12052;53.478;10.182;2023-03-14T00:02:59;9.70;99.90
23744;DHT22;12052;53.478;10.182;2023-03-14T00:05:26;9.50;99.90
23744;DHT22;12052;53.478;10.182;2023-03-14T00:07:51;9.40;99.90
23744;DHT22;12052;53.478;10.182;2023-03-14T00:10:17;9.30;99.90
23744;DHT22;12052;53.478;10.182;2023-03-14T00:12:43;9.20;99.90
23744;DHT22;12052;53.478;10.182;2023-03-14T00:15:10;9.20;99.90
23744;DHT22;12052;53.478;10.182;2023-03-14T00:17:37;9.20;99.90
23744;DHT22;12052;53.478;10.182;2023-03-14T00:20:05;9.30;99.90
23744;DHT22;12052;53.478;10.182;2023-03-14T00:22:37;9.40;99.90
23744;DHT22;12052;53.478;10.182;2023-03-14T00:25:04;9.40;99.90
23744;DHT22;12052;53.478;10.182;2023-03-14T00:27:30;9.30;99.90
23744;DHT22;12052;53.478;10.182;2023-03-14T00:29:56;9.20;99.90
23744;DHT22;12052;53.478;10.182;2023-03-14T00:32:21;9.10;99.90
23744;DHT22;12052;53.478;10.182;2023-03-14T00:34:47;9.10;99.90
23744;DHT22;12052;53.478;10.182;2023-03-14T00:37:12;9.10;99.90
23744;DHT22;12052;53.478;10.182;2023-03-14T00:39:38;9.10;99.90
23744;DHT22;12052;53.478;10.182;2023-03-14T00:42:04;9.00;99.90
23744;DHT22;12052;53.478;10.182;2023-03-14T00:44:29;9.00;99.90
23744;DHT22;12052;53.478;10.182;2023-03-14T00:46:55;9.00;99.90
23744;DHT22;12052;53.478;10.182;2023-03-14T00:49:21;9.00;99.90
23744;DHT22;12052;53.478;10.182;2023-03-14T00:51:46;8.90;99.90
23744;DHT22;12052;53.478;10.182;2023-03-14T00:54:12;8.90;99.90
23744;DHT22;12052;53.478;10.182;2023-03-14T00:56:37;8.80;99.90
23744;DHT22;12052;53.478;10.182;2023-03-14T00:59:03;8.80;99.90
23744;DHT22;12052;53.478;10.182;2023-03-14T01:01:29;8.80;99.90
23744;DHT22;12052;53.478;10.182;2023-03-14T01:03:55;8.80;99.90
23744;DHT22;12052;53.478;10.182;2023-03-14T01:06:26;8.80;99.90
23744;DHT22;12052;53.478;10.182;2023-03-14T01:08:53;8.80;99.90
23744;DHT22;12052;53.478;10.182;2023-03-14T01:11:27;8.80;99.90
23744;DHT22;12052;53.478;10.182;2023-03-14T01:13:53;8.80;99.90
23744;DHT22;12052;53.478;10.182;2023-03-14T01:16:21;8.90;99.90
23744;DHT22;12052;53.478;10.182;2023-03-14T01:18:47;9.00;99.90
23744;DHT22;12052;53.478;10.182;2023-03-14T01:21:16;9.00;99.90
23744;DHT22;12052;53.478;10.182;2023-03-14T01:23:43;9.10;99.90
23744;DHT22;12052;53.478;10.182;2023-03-14T01:26:11;9.10;99.90
23744;DHT22;12052;53.478;10.182;2023-03-14T01:28:37;9.10;99.90
23744;DHT22;12052;53.478;10.182;2023-03-14T01:31:08;9.10;99.90
23744;DHT22;12052;53.478;10.182;2023-03-14T01:33:34;9.10;99.90
23744;DHT22;12052;53.478;10.182;2023-03-14T01:36:00;9.10;99.90
23744;DHT22;12052;53.478;10.182;2023-03-14T01:38:28;9.00;99.90
23744;DHT22;12052;53.478;10.182;2023-03-14T01:40:54;9.00;99.90
23744;DHT22;12052;53.478;10.182;2023-03-14T01:43:20;9.00;99.90
23744;DHT22;12052;53.478;10.182;2023-03-14T01:46:14;9.00;99.90
23744;DHT22;12052;53.478;10.182;2023-03-14T01:54:07;9.30;99.90
23744;DHT22;12052;53.478;10.182;2023-03-14T01:56:35;9.30;99.90
23744;DHT22;12052;53.478;10.182;2023-03-14T01:59:04;9.40;99.90
23744;DHT22;12052;53.478;10.182;2023-03-14T02:01:31;9.50;99.90
23744;DHT22;12052;53.478;10.182;2023-03-14T02:04:02;9.50;99.90
23744;DHT22;12052;53.478;10.182;2023-03-14T02:06:40;9.60;99.90
23744;DHT22;12052;53.478;10.182;2023-03-14T02:09:07;9.60;99.90
23744;DHT22;12052;53.478;10.182;2023-03-14T02:11:33;9.50;99.90
23744;DHT22;12052;53.478;10.182;2023-03-14T02:13:59;9.50;99.90
23744;DHT22;12052;53.478;10.182;2023-03-14T02:16:26;9.50;99.90
23744;DHT22;12052;53.478;10.182;2023-03-14T02:18:52;9.50;99.90
23744;DHT22;12052;53.478;10.182;2023-03-14T02:21:34;9.50;99.90
23744;DHT22;12052;53.478;10.182;2023-03-14T02:26:42;9.50;99.90
23744;DHT22;12052;53.478;10.182;2023-03-14T02:29:08;9.50;99.90
23744;DHT22;12052;53.478;10.182;2023-03-14T02:31:35;9.50;99.90
23744;DHT22;12052;53.478;10.182;2023-03-14T02:34:01;9.60;99.90
23744;DHT22;12052;53.478;10.182;2023-03-14T02:36:28;9.50;99.90
23744;DHT22;12052;53.478;10.182;2023-03-14T02:39:01;9.50;99.90
23744;DHT22;12052;53.478;10.182;2023-03-14T02:41:31;9.60;99.90
23744;DHT22;12052;53.478;10.182;2023-03-14T02:43:56;9.60;99.90
23744;DHT22;12052;53.478;10.182;2023-03-14T02:46:22;9.50;99.90
23744;DHT22;12052;53.478;10.182;2023-03-14T02:49:14;9.60;99.90
23744;DHT22;12052;53.478;10.182;2023-03-14T02:51:40;9.50;99.90
23744;DHT22;12052;53.478;10.182;2023-03-14T02:54:07;9.50;99.90
23744;DHT22;12052;53.478;10.182;2023-03-14T02:56:32;9.40;99.90
23744;DHT22;12052;53.478;10.182;2023-03-14T02:58:58;9.30;99.90
23744;DHT22;12052;53.478;10.182;2023-03-14T03:01:24;9.30;99.90
23744;DHT22;12052;53.478;10.182;2023-03-14T03:03:50;9.30;99.90
23744;DHT22;12052;53.478;10.182;2023-03-14T03:06:15;9.20;99.90
23744;DHT22;12052;53.478;10.182;2023-03-14T03:08:41;9.30;99.90
23744;DHT22;12052;53.478;10.182;2023-03-14T03:11:07;9.30;99.90
23744;DHT22;12052;53.478;10.182;2023-03-14T03:13:32;9.30;99.90
23744;DHT22;12052;53.478;10.182;2023-03-14T03:15:58;9.40;99.90
23744;DHT22;12052;53.478;10.182;2023-03-14T03:18:24;9.40;99.90
23744;DHT22;12052;53.478;10.182;2023-03-14T03:20:49;9.50;99.90
23744;DHT22;12052;53.478;10.182;2023-03-14T03:23:15;9.60;99.90
23744;DHT22;12052;53.478;10.182;2023-03-14T03:25:41;9.60;99.90
23744;DHT22;12052;53.478;10.182;2023-03-14T03:28:07;9.60;99.90
23744;DHT22;12052;53.478;10.182;2023-03-14T03:30:42;9.60;99.90
23744;DHT22;12052;53.478;10.182;2023-03-14T03:33:08;9.60;99.90
23744;DHT22;12052;53.478;10.182;2023-03-14T03:35:34;9.70;99.90
23744;DHT22;12052;53.478;10.182;2023-03-14T03:38:00;9.80;99.90
23744;DHT22;12052;53.478;10.182;2023-03-14T03:40:26;9.80;99.90
23744;DHT22;12052;53.478;10.182;2023-03-14T03:42:52;9.80;99.90
23744;DHT22;12052;53.478;10.182;2023-03-14T03:45:17;9.80;99.90
23744;DHT22;12052;53.478;10.182;2023-03-14T03:47:43;9.90;99.90
23744;DHT22;12052;53.478;10.182;2023-03-14T03:50:09;9.90;99.90
23744;DHT22;12052;53.478;10.182;2023-03-14T03:52:35;9.80;99.90
23744;DHT22;12052;53.478;10.182;2023-03-14T03:55:00;9.90;99.90
23744;DHT22;12052;53.478;10.182;2023-03-14T03:57:26;9.80;99.90
23744;DHT22;12052;53.478;10.182;2023-03-14T03:59:51;9.60;99.90
23744;DHT22;12052;53.478;10.182;2023-03-14T04:02:17;9.50;99.90
23744;DHT22;12052;53.478;10.182;2023-03-14T04:04:42;9.50;99.90
23744;DHT22;12052;53.478;10.182;2023-03-14T04:07:08;9.40;99.90
23744;DHT22;12052;53.478;10.182;2023-03-14T04:09:34;9.40;99.90
23744;DHT22;12052;53.478;10.182;2023-03-14T04:12:00;9.40;99.90
23744;DHT22;12052;53.478;10.182;2023-03-14T04:14:25;9.40;99.90
23744;DHT22;12052;53.478;10.182;2023-03-14T04:16:51;9.50;99.90
23744;DHT22;12052;53.478;10.182;2023-03-14T04:19:17;9.50;99.90
23744;DHT22;12052;53.478;10.182;2023-03-14T04:21:42;9.50;99.90
23744;DHT22;12052;53.478;10.182;2023-03-14T04:24:10;9.50;99.90
23744;DHT22;12052;53.478;10.182;2023-03-14T04:26:36;9.50;99.90
23744;DHT22;12052;53.478;10.182;2023-03-14T04:29:02;9.50;99.90
23744;DHT22;12052;53.478;10.182;2023-03-14T04:31:27;9.50;99.90
23744;DHT22;12052;53.478;10.182;2023-03-14T04:33:53;9.60;99.90
23744;DHT22;12052;53.478;10.182;2023-03-14T04:36:19;9.60;99.90
23744;DHT22;12052;53.478;10.182;2023-03-14T04:38:44;9.70;99.90
23744;DHT22;12052;53.478;10.182;2023-03-14T04:41:10;9.80;99.90
23744;DHT22;12052;53.478;10.182;2023-03-14T04:43:36;9.80;99.90
23744;DHT22;12052;53.478;10.182;2023-03-14T04:46:02;9.80;99.90
23744;DHT22;12052;53.478;10.182;2023-03-14T04:48:28;9.90;99.90
23744;DHT22;12052;53.478;10.182;2023-03-14T04:50:54;9.90;99.90
23744;DHT22;12052;53.478;10.182;2023-03-14T04:53:19;10.00;99.90
23744;DHT22;12052;53.478;10.182;2023-03-14T04:55:52;10.00;99.90
23744;DHT22;12052;53.478;10.182;2023-03-14T04:58:19;10.00;99.90
23744;DHT22;12052;53.478;10.182;2023-03-14T05:00:45;10.10;99.90
23744;DHT22;12052;53.478;10.182;2023-03-14T05:03:11;10.20;99.90
23744;DHT22;12052;53.478;10.182;2023-03-14T05:05:37;10.20;99.90
23744;DHT22;12052;53.478;10.182;2023-03-14T05:08:03;10.30;99.90
23744;DHT22;12052;53.478;10.182;2023-03-14T05:10:28;10.30;99.90
23744;DHT22;12052;53.478;10.182;2023-03-14T05:12:54;10.30;99.90
23744;DHT22;12052;53.478;10.182;2023-03-14T05:15:20;10.30;99.90
23744;DHT22;12052;53.478;10.182;2023-03-14T05:17:46;10.20;99.90
23744;DHT22;12052;53.478;10.182;2023-03-14T05:20:12;9.90;99.90
23744;DHT22;12052;53.478;10.182;2023-03-14T05:22:41;9.60;99.90
23744;DHT22;12052;53.478;10.182;2023-03-14T05:25:07;9.50;99.90
23744;DHT22;12052;53.478;10.182;2023-03-14T05:27:33;9.30;99.90
23744;DHT22;12052;53.478;10.182;2023-03-14T05:29:59;9.40;99.90
23744;DHT22;12052;53.478;10.182;2023-03-14T05:32:25;9.30;99.90
23744;DHT22;12052;53.478;10.182;2023-03-14T05:34:50;9.30;99.90
23744;DHT22;12052;53.478;10.182;2023-03-14T05:37:16;9.30;99.90
23744;DHT22;12052;53.478;10.182;2023-03-14T05:39:42;9.30;99.90
23744;DHT22;12052;53.478;10.182;2023-03-14T05:42:07;9.30;99.90
23744;DHT22;12052;53.478;10.182;2023-03-14T05:44:33;9.30;99.90
23744;DHT22;12052;53.478;10.182;2023-03-14T05:46:59;9.30;99.90
23744;DHT22;12052;53.478;10.182;2023-03-14T05:49:24;9.40;99.90
23744;DHT22;12052;53.478;10.182;2023-03-14T05:51:51;9.50;99.90
23744;DHT22;12052;53.478;10.182;2023-03-14T05:54:16;9.50;99.90
23744;DHT22;12052;53.478;10.182;2023-03-14T05:56:42;9.60;99.90
23744;DHT22;12052;53.478;10.182;2023-03-14T05:59:08;9.70;99.90
23744;DHT22;12052;53.478;10.182;2023-03-14T06:01:34;9.70;99.90
23744;DHT22;12052;53.478;10.182;2023-03-14T06:04:00;9.90;99.90
23744;DHT22;12052;53.478;10.182;2023-03-14T06:06:25;9.80;99.90
23744;DHT22;12052;53.478;10.182;2023-03-14T06:08:51;9.80;99.90
23744;DHT22;12052;53.478;10.182;2023-03-14T06:11:17;9.70;99.90
23744;DHT22;12052;53.478;10.182;2023-03-14T06:13:43;9.70;99.90
23744;DHT22;12052;53.478;10.182;2023-03-14T06:16:08;9.60;99.90
23744;DHT22;12052;53.478;10.182;2023-03-14T06:18:34;9.80;99.90
23744;DHT22;12052;53.478;10.182;2023-03-14T06:21:00;9.90;99.90
23744;DHT22;12052;53.478;10.182;2023-03-14T06:23:25;9.90;99.90
23744;DHT22;12052;53.478;10.182;2023-03-14T06:25:51;9.90;99.90
23744;DHT22;12052;53.478;10.182;2023-03-14T06:28:17;10.00;99.90
23744;DHT22;12052;53.478;10.182;2023-03-14T06:30:42;10.10;99.90
23744;DHT22;12052;53.478;10.182;2023-03-14T06:33:08;10.10;99.90
23744;DHT22;12052;53.478;10.182;2023-03-14T06:35:34;10.10;99.90
23744;DHT22;12052;53.478;10.182;2023-03-14T06:37:59;10.00;99.90
23744;DHT22;12052;53.478;10.182;2023-03-14T06:40:25;9.90;99.90
23744;DHT22;12052;53.478;10.182;2023-03-14T06:42:51;9.70;99.90
23744;DHT22;12052;53.478;10.182;2023-03-14T06:45:17;9.60;99.90
23744;DHT22;12052;53.478;10.182;2023-03-14T06:47:42;9.60;99.90
23744;DHT22;12052;53.478;10.182;2023-03-14T06:50:09;9.50;99.90
23744;DHT22;12052;53.478;10.182;2023-03-14T06:52:35;9.50;99.90
23744;DHT22;12052;53.478;10.182;2023-03-14T06:55:02;9.50;99.90
23744;DHT22;12052;53.478;10.182;2023-03-14T06:57:27;9.50;99.90
23744;DHT22;12052;53.478;10.182;2023-03-14T06:59:53;9.60;99.90
23744;DHT22;12052;53.478;10.182;2023-03-14T07:02:19;9.70;99.90
23744;DHT22;12052;53.478;10.182;2023-03-14T07:04:44;9.90;99.90
23744;DHT22;12052;53.478;10.182;2023-03-14T07:07:10;10.00;99.90
23744;DHT22;12052;53.478;10.182;2023-03-14T07:09:36;10.20;99.90
23744;DHT22;12052;53.478;10.182;2023-03-14T07:12:02;10.40;99.90
23744;DHT22;12052;53.478;10.182;2023-03-14T07:14:29;10.50;99.90
23744;DHT22;12052;53.478;10.182;2023-03-14T07:16:55;10.50;99.90
23744;DHT22;12052;53.478;10.182;2023-03-14T07:19:21;10.60;99.90
23744;DHT22;12052;53.478;10.182;2023-03-14T07:21:46;10.70;99.90
23744;DHT22;12052;53.478;10.182;2023-03-14T07:24:12;10.60;99.90
23744;DHT22;12052;53.478;10.182;2023-03-14T07:26:38;10.70;99.90
23744;DHT22;12052;53.478;10.182;2023-03-14T07:29:04;10.70;99.90
23744;DHT22;12052;53.478;10.182;2023-03-14T07:31:30;10.80;99.90
23744;DHT22;12052;53.478;10.182;2023-03-14T07:33:55;10.90;99.90
23744;DHT22;12052;53.478;10.182;2023-03-14T07:36:21;11.00;99.90
23744;DHT22;12052;53.478;10.182;2023-03-14T07:38:47;11.00;99.90
23744;DHT22;12052;53.478;10.182;2023-03-14T07:41:13;11.00;99.90
23744;DHT22;12052;53.478;10.182;2023-03-14T07:43:39;11.00;99.90
23744;DHT22;12052;53.478;10.182;2023-03-14T07:46:05;11.10;99.90
23744;DHT22;12052;53.478;10.182;2023-03-14T07:48:31;11.10;99.90
23744;DHT22;12052;53.478;10.182;2023-03-14T07:50:57;11.20;99.90
23744;DHT22;12052;53.478;10.182;2023-03-14T07:53:23;11.40;99.90
23744;DHT22;12052;53.478;10.182;2023-03-14T07:55:53;11.70;99.90
23744;DHT22;12052;53.478;10.182;2023-03-14T07:58:20;11.80;99.90
23744;DHT22;12052;53.478;10.182;2023-03-14T08:00:47;11.70;99.90
23744;DHT22;12052;53.478;10.182;2023-03-14T08:03:13;11.80;99.90
23744;DHT22;12052;53.478;10.182;2023-03-14T08:05:39;11.60;99.90
23744;DHT22;12052;53.478;10.182;2023-03-14T08:08:05;11.60;99.90
23744;DHT22;12052;53.478;10.182;2023-03-14T08:10:31;11.40;99.90
23744;DHT22;12052;53.478;10.182;2023-03-14T08:12:58;11.30;99.90
23744;DHT22;12052;53.478;10.182;2023-03-14T08:15:24;11.10;99.90
23744;DHT22;12052;53.478;10.182;2023-03-14T08:17:50;11.10;99.90
23744;DHT22;12052;53.478;10.182;2023-03-14T08:20:21;10.90;99.90
23744;DHT22;12052;53.478;10.182;2023-03-14T08:22:47;10.90;99.90
23744;DHT22;12052;53.478;10.182;2023-03-14T08:25:13;11.00;99.90
23744;DHT22;12052;53.478;10.182;2023-03-14T08:27:39;11.00;99.90
23744;DHT22;12052;53.478;10.182;2023-03-14T08:30:10;11.30;99.90
23744;DHT22;12052;53.478;10.182;2023-03-14T08:32:36;11.70;99.90
23744;DHT22;12052;53.478;10.182;2023-03-14T08:35:02;11.70;99.90
23744;DHT22;12052;53.478;10.182;2023-03-14T08:37:28;11.80;99.90
23744;DHT22;12052;53.478;10.182;2023-03-14T08:39:54;11.90;99.90
23744;DHT22;12052;53.478;10.182;2023-03-14T08:42:19;11.80;99.90
23744;DHT22;12052;53.478;10.182;2023-03-14T08:44:45;11.90;99.90
23744;DHT22;12052;53.478;10.182;2023-03-14T08:47:11;12.00;99.90
23744;DHT22;12052;53.478;10.182;2023-03-14T08:49:36;12.00;99.90
23744;DHT22;12052;53.478;10.182;2023-03-14T08:52:03;12.20;99.90
23744;DHT22;12052;53.478;10.182;2023-03-14T08:54:30;12.30;99.90
23744;DHT22;12052;53.478;10.182;2023-03-14T08:56:56;12.20;99.90
23744;DHT22;12052;53.478;10.182;2023-03-14T08:59:22;12.30;99.90
23744;DHT22;12052;53.478;10.182;2023-03-14T09:01:48;12.20;99.90
23744;DHT22;12052;53.478;10.182;2023-03-14T09:04:13;12.10;99.90
23744;DHT22;12052;53.478;10.182;2023-03-14T09:06:39;12.30;99.90
23744;DHT22;12052;53.478;10.182;2023-03-14T09:09:05;12.20;99.90
23744;DHT22;12052;53.478;10.182;2023-03-14T09:11:31;12.20;99.90
23744;DHT22;12052;53.478;10.182;2023-03-14T09:13:56;12.30;99.90
23744;DHT22;12052;53.478;10.182;2023-03-14T09:16:22;12.40;99.90
23744;DHT22;12052;53.478;10.182;2023-03-14T09:18:48;12.50;99.90
23744;DHT22;12052;53.478;10.182;2023-03-14T09:21:14;12.50;99.90
23744;DHT22;12052;53.478;10.182;2023-03-14T09:23:39;12.50;99.90
23744;DHT22;12052;53.478;10.182;2023-03-14T09:26:06;12.40;99.90
23744;DHT22;12052;53.478;10.182;2023-03-14T09:28:32;12.30;99.90
23744;DHT22;12052;53.478;10.182;2023-03-14T09:30:57;12.20;99.90
23744;DHT22;12052;53.478;10.182;2023-03-14T09:33:23;12.00;99.90
23744;DHT22;12052;53.478;10.182;2023-03-14T09:35:49;11.90;99.90
23744;DHT22;12052;53.478;10.182;2023-03-14T09:38:15;12.10;99.90
23744;DHT22;12052;53.478;10.182;2023-03-14T09:40:41;12.00;99.90
23744;DHT22;12052;53.478;10.182;2023-03-14T09:43:14;11.80;99.90
23744;DHT22;12052;53.478;10.182;2023-03-14T09:45:41;11.70;99.90
23744;DHT22;12052;53.478;10.182;2023-03-14T09:48:15;11.60;99.90
23744;DHT22;12052;53.478;10.182;2023-03-14T09:50:44;11.70;99.90
23744;DHT22;12052;53.478;10.182;2023-03-14T09:53:22;11.80;99.90
23744;DHT22;12052;53.478;10.182;2023-03-14T09:55:50;11.90;99.90
23744;DHT22;12052;53.478;10.182;2023-03-14T09:58:19;12.10;99.90
23744;DHT22;12052;53.478;10.182;2023-03-14T10:00:45;12.00;99.90
23744;DHT22;12052;53.478;10.182;2023-03-14T10:05:37;11.90;99.90
23744;DHT22;12052;53.478;10.182;2023-03-14T10:08:02;11.80;99.90
23744;DHT22;12052;53.478;10.182;2023-03-14T10:10:28;11.40;99.90
23744;DHT22;12052;53.478;10.182;2023-03-14T10:15:38;10.10;99.90
23744;DHT22;12052;53.478;10.182;2023-03-14T10:18:12;8.80;99.90
23744;DHT22;12052;53.478;10.182;2023-03-14T10:20:40;8.20;99.90
23744;DHT22;12052;53.478;10.182;2023-03-14T10:23:23;8.00;99.90
23744;DHT22;12052;53.478;10.182;2023-03-14T10:28:33;8.00;99.90
23744;DHT22;12052;53.478;10.182;2023-03-14T10:31:00;7.90;99.90
23744;DHT22;12052;53.478;10.182;2023-03-14T10:33:32;7.70;99.90
23744;DHT22;12052;53.478;10.182;2023-03-14T10:36:05;7.80;99.90
23744;DHT22;12052;53.478;10.182;2023-03-14T10:38:36;7.70;99.90
23744;DHT22;12052;53.478;10.182;2023-03-14T10:41:05;7.70;99.90
23744;DHT22;12052;53.478;10.182;2023-03-14T10:43:40;7.60;99.90
23744;DHT22;12052;53.478;10.182;2023-03-14T10:46:16;7.50;99.90
23744;DHT22;12052;53.478;10.182;2023-03-14T10:48:43;7.50;99.90
23744;DHT22;12052;53.478;10.182;2023-03-14T10:51:11;7.30;99.90
23744;DHT22;12052;53.478;10.182;2023-03-14T10:56:24;6.60;99.90
23744;DHT22;12052;53.478;10.182;2023-03-14T10:58:59;6.50;99.90
23744;DHT22;12052;53.478;10.182;2023-03-14T11:07:28;5.90;99.90
23744;DHT22;12052;53.478;10.182;2023-03-14T11:09:50;5.70;99.90
23744;DHT22;12052;53.478;10.182;2023-03-14T11:15:34;5.60;99.90
23744;DHT22;12052;53.478;10.182;2023-03-14T11:26:28;4.70;99.90
23744;DHT22;12052;53.478;10.182;2023-03-14T11:29:19;4.70;99.90
23744;DHT22;12052;53.478;10.182;2023-03-14T11:31:46;4.80;99.90
23744;DHT22;12052;53.478;10.182;2023-03-14T11:34:35;5.00;99.90
23744;DHT22;12052;53.478;10.182;2023-03-14T11:37:07;5.00;99.90
23744;DHT22;12052;53.478;10.182;2023-03-14T11:39:44;4.90;99.90
23744;DHT22;12052;53.478;10.182;2023-03-14T11:42:16;4.80;99.90
23744;DHT22;12052;53.478;10.182;2023-03-14T11:44:49;4.50;99.90
23744;DHT22;12052;53.478;10.182;2023-03-14T11:47:32;4.50;99.90
23744;DHT22;12052;53.478;10.182;2023-03-14T11:52:58;4.30;99.90
23744;DHT22;12052;53.478;10.182;2023-03-14T11:55:33;4.30;99.90
23744;DHT22;12052;53.478;10.182;2023-03-14T11:58:15;4.60;99.90
23744;DHT22;12052;53.478;10.182;2023-03-14T12:00:43;4.40;99.90
23744;DHT22;12052;53.478;10.182;2023-03-14T12:08:44;4.80;99.90
23744;DHT22;12052;53.478;10.182;2023-03-14T12:11:16;4.50;99.90
23744;DHT22;12052;53.478;10.182;2023-03-14T12:13:47;4.60;99.90
23744;DHT22;12052;53.478;10.182;2023-03-14T12:18:49;4.80;99.90
23744;DHT22;12052;53.478;10.182;2023-03-14T12:21:15;4.60;99.90
23744;DHT22;12052;53.478;10.182;2023-03-14T12:26:25;4.30;99.90
23744;DHT22;12052;53.478;10.182;2023-03-14T12:41:44;4.40;99.90
23744;DHT22;12052;53.478;10.182;2023-03-14T12:47:47;4.20;99.90
23744;DHT22;12052;53.478;10.182;2023-03-14T12:49:46;4.40;99.90
23744;DHT22;12052;53.478;10.182;2023-03-14T12:52:21;4.40;99.90
23744;DHT22;12052;53.478;10.182;2023-03-14T13:00:41;4.60;99.90
23744;DHT22;12052;53.478;10.182;2023-03-14T13:03:19;4.50;99.90
23744;DHT22;12052;53.478;10.182;2023-03-14T13:05:58;4.60;99.90
23744;DHT22;12052;53.478;10.182;2023-03-14T13:08:43;4.60;99.90
23744;DHT22;12052;53.478;10.182;2023-03-14T13:11:16;4.60;99.90
23744;DHT22;12052;53.478;10.182;2023-03-14T13:14:07;4.70;99.90
23744;DHT22;12052;53.478;10.182;2023-03-14T13:16:36;4.70;99.90
23744;DHT22;12052;53.478;10.182;2023-03-14T13:19:06;4.90;99.90
23744;DHT22;12052;53.478;10.182;2023-03-14T13:21:37;4.80;99.90
23744;DHT22;12052;53.478;10.182;2023-03-14T13:24:05;4.40;99.90
23744;DHT22;12052;53.478;10.182;2023-03-14T13:26:36;4.40;99.90
23744;DHT22;12052;53.478;10.182;2023-03-14T13:29:29;4.40;99.90
23744;DHT22;12052;53.478;10.182;2023-03-14T13:32:00;4.70;99.90
23744;DHT22;12052;53.478;10.182;2023-03-14T13:34:29;4.60;99.90
23744;DHT22;12052;53.478;10.182;2023-03-14T13:36:55;4.90;99.90
23744;DHT22;12052;53.478;10.182;2023-03-14T13:39:23;4.80;99.90
23744;DHT22;12052;53.478;10.182;2023-03-14T13:41:54;4.80;99.90
23744;DHT22;12052;53.478;10.182;2023-03-14T13:44:26;4.70;99.90
23744;DHT22;12052;53.478;10.182;2023-03-14T13:47:01;4.80;99.90
23744;DHT22;12052;53.478;10.182;2023-03-14T13:49:28;4.00;99.90
23744;DHT22;12052;53.478;10.182;2023-03-14T13:51:57;4.40;99.90
23744;DHT22;12052;53.478;10.182;2023-03-14T13:54:26;4.50;99.90
23744;DHT22;12052;53.478;10.182;2023-03-14T13:57:05;4.70;99.90
23744;DHT22;12052;53.478;10.182;2023-03-14T13:59:33;4.90;99.90
23744;DHT22;12052;53.478;10.182;2023-03-14T14:02:01;5.00;99.90
23744;DHT22;12052;53.478;10.182;2023-03-14T14:04:29;5.10;99.90
23744;DHT22;12052;53.478;10.182;2023-03-14T14:06:59;5.30;99.90
23744;DHT22;12052;53.478;10.182;2023-03-14T14:09:37;5.30;99.90
23744;DHT22;12052;53.478;10.182;2023-03-14T14:12:10;5.40;99.90
23744;DHT22;12052;53.478;10.182;2023-03-14T14:14:53;5.50;99.90
23744;DHT22;12052;53.478;10.182;2023-03-14T14:17:25;5.60;99.90
23744;DHT22;12052;53.478;10.182;2023-03-14T14:19:52;5.70;99.90
23744;DHT22;12052;53.478;10.182;2023-03-14T14:22:19;5.60;99.90
23744;DHT22;12052;53.478;10.182;2023-03-14T14:24:45;5.60;99.90
23744;DHT22;12052;53.478;10.182;2023-03-14T14:27:19;5.50;99.90
23744;DHT22;12052;53.478;10.182;2023-03-14T14:29:57;5.50;99.90
23744;DHT22;12052;53.478;10.182;2023-03-14T14:32:23;5.50;99.90
23744;DHT22;12052;53.478;10.182;2023-03-14T14:37:44;5.70;99.90
23744;DHT22;12052;53.478;10.182;2023-03-14T14:40:35;5.80;99.90
23744;DHT22;12052;53.478;10.182;2023-03-14T14:43:04;5.90;99.90
23744;DHT22;12052;53.478;10.182;2023-03-14T14:45:33;5.90;99.90
23744;DHT22;12052;53.478;10.182;2023-03-14T14:50:34;6.00;99.90
23744;DHT22;12052;53.478;10.182;2023-03-14T14:55:51;5.80;99.90
23744;DHT22;12052;53.478;10.182;2023-03-14T15:03:30;5.80;99.90
23744;DHT22;12052;53.478;10.182;2023-03-14T15:05:56;5.80;99.90
23744;DHT22;12052;53.478;10.182;2023-03-14T15:08:22;5.90;99.90
23744;DHT22;12052;53.478;10.182;2023-03-14T15:10:49;5.90;99.90
23744;DHT22;12052;53.478;10.182;2023-03-14T15:13:14;6.00;99.90
23744;DHT22;12052;53.478;10.182;2023-03-14T15:15:41;6.10;99.90
23744;DHT22;12052;53.478;10.182;2023-03-14T15:18:16;5.90;99.90
23744;DHT22;12052;53.478;10.182;2023-03-14T15:20:43;5.80;99.90
23744;DHT22;12052;53.478;10.182;2023-03-14T15:23:11;5.80;99.90
23744;DHT22;12052;53.478;10.182;2023-03-14T15:25:37;5.80;99.90
23744;DHT22;12052;53.478;10.182;2023-03-14T15:28:17;5.80;99.90
23744;DHT22;12052;53.478;10.182;2023-03-14T15:30:43;5.70;99.90
23744;DHT22;12052;53.478;10.182;2023-03-14T15:33:09;5.80;99.90
23744;DHT22;12052;53.478;10.182;2023-03-14T15:35:38;5.80;99.90
23744;DHT22;12052;53.478;10.182;2023-03-14T15:38:04;5.80;99.90
23744;DHT22;12052;53.478;10.182;2023-03-14T15:40:30;5.80;99.90
23744;DHT22;12052;53.478;10.182;2023-03-14T15:42:56;5.70;99.90
23744;DHT22;12052;53.478;10.182;2023-03-14T15:45:22;5.70;99.90
23744;DHT22;12052;53.478;10.182;2023-03-14T15:47:47;5.80;99.90
23744;DHT22;12052;53.478;10.182;2023-03-14T15:50:13;5.90;99.90
23744;DHT22;12052;53.478;10.182;2023-03-14T15:52:38;5.80;99.90
23744;DHT22;12052;53.478;10.182;2023-03-14T15:55:04;5.80;99.90
23744;DHT22;12052;53.478;10.182;2023-03-14T15:57:30;5.90;99.90
23744;DHT22;12052;53.478;10.182;2023-03-14T15:59:55;5.80;99.90
23744;DHT22;12052;53.478;10.182;2023-03-14T16:02:21;5.90;99.90
23744;DHT22;12052;53.478;10.182;2023-03-14T16:04:46;5.80;99.90
23744;DHT22;12052;53.478;10.182;2023-03-14T16:07:12;5.90;99.90
23744;DHT22;12052;53.478;10.182;2023-03-14T16:09:38;5.80;99.90
23744;DHT22;12052;53.478;10.182;2023-03-14T16:12:03;5.70;99.90
23744;DHT22;12052;53.478;10.182;2023-03-14T16:14:30;5.60;99.90
23744;DHT22;12052;53.478;10.182;2023-03-14T16:16:56;5.50;99.90
23744;DHT22;12052;53.478;10.182;2023-03-14T16:19:25;5.50;99.90
23744;DHT22;12052;53.478;10.182;2023-03-14T16:21:52;5.50;99.90
23744;DHT22;12052;53.478;10.182;2023-03-14T16:24:18;5.50;99.90
23744;DHT22;12052;53.478;10.182;2023-03-14T16:26:43;5.50;99.90
23744;DHT22;12052;53.478;10.182;2023-03-14T16:29:09;5.50;99.90
23744;DHT22;12052;53.478;10.182;2023-03-14T16:31:35;5.40;99.90
23744;DHT22;12052;53.478;10.182;2023-03-14T16:34:10;5.40;99.90
23744;DHT22;12052;53.478;10.182;2023-03-14T16:36:36;5.30;99.90
23744;DHT22;12052;53.478;10.182;2023-03-14T16:39:03;5.30;99.90
23744;DHT22;12052;53.478;10.182;2023-03-14T16:41:29;5.20;99.90
23744;DHT22;12052;53.478;10.182;2023-03-14T16:43:59;5.10;99.90
23744;DHT22;12052;53.478;10.182;2023-03-14T16:46:26;5.10;99.90
23744;DHT22;12052;53.478;10.182;2023-03-14T16:48:53;5.10;99.90
23744;DHT22;12052;53.478;10.182;2023-03-14T16:51:19;5.00;99.90
23744;DHT22;12052;53.478;10.182;2023-03-14T16:53:45;5.00;99.90
23744;DHT22;12052;53.478;10.182;2023-03-14T16:56:11;4.90;99.90